Time;durP1;ratioP1;P1;durP2;ratioP2;P2;SDS_P1;SDS_P2;PMS_P1;PMS_P2;Temp;Humidity;BMP_temperature;BMP_pressure;BME280_temperature;BME280_humidity;BME280_pressure;Samples;Min_cycle;Max_cycle;Signal;HPM_P1;HPM_P2
2022/08/07 00:00:37;;;;;;;7.22;3.00;;;;;;;;;;5092773;28;20026;-72
2022/08/07 00:03:03;;;;;;;3.25;2.72;;;;;;;;;;5092808;28;20371;-72
2022/08/07 00:05:29;;;;;;;4.28;2.58;;;;;;;;;;5092884;28;20024;-72
2022/08/07 00:07:56;;;;;;;4.20;2.90;;;;;;;;;;5092782;28;20034;-72
2022/08/07 00:10:22;;;;;;;3.75;2.70;;;;;;;;;;5093019;28;20050;-72
2022/08/07 00:12:49;;;;;;;4.55;2.83;;;;;;;;;;5090908;28;20413;-73
2022/08/07 00:15:16;;;;;;;3.85;2.70;;;;;;;;;;5092612;28;20035;-73
2022/08/07 00:17:43;;;;;;;4.78;2.67;;;;;;;;;;5091537;28;20030;-73
2022/08/07 00:20:10;;;;;;;6.60;2.60;;;;;;;;;;5092587;28;20012;-72
2022/08/07 00:22:36;;;;;;;5.63;3.17;;;;;;;;;;5092451;28;20028;-72
2022/08/07 00:25:04;;;;;;;2.58;2.38;;;;;;;;;;5092752;28;20031;-73
2022/08/07 00:27:30;;;;;;;3.67;2.47;;;;;;;;;;5092493;28;20034;-72
2022/08/07 00:29:56;;;;;;;5.55;2.40;;;;;;;;;;5092504;28;20028;-72
2022/08/07 00:32:23;;;;;;;2.95;2.50;;;;;;;;;;5092425;28;20042;-72
2022/08/07 00:34:49;;;;;;;5.22;2.80;;;;;;;;;;5092474;28;20020;-72
2022/08/07 00:37:16;;;;;;;3.75;2.80;;;;;;;;;;5092175;28;20036;-73
2022/08/07 00:39:42;;;;;;;4.63;2.60;;;;;;;;;;5092261;28;20048;-73
2022/08/07 00:42:09;;;;;;;6.75;2.80;;;;;;;;;;5091934;28;20042;-72
2022/08/07 00:44:36;;;;;;;5.60;2.30;;;;;;;;;;5092395;28;20026;-72
2022/08/07 00:47:03;;;;;;;3.10;2.67;;;;;;;;;;5091115;28;20024;-73
2022/08/07 00:49:29;;;;;;;3.10;2.50;;;;;;;;;;5092176;28;20041;-72
2022/08/07 00:51:56;;;;;;;2.92;2.60;;;;;;;;;;5092208;28;20028;-72
2022/08/07 00:54:22;;;;;;;4.82;2.83;;;;;;;;;;5092342;28;20491;-72
2022/08/07 00:56:49;;;;;;;5.05;2.50;;;;;;;;;;5092293;28;20094;-72
2022/08/07 00:59:16;;;;;;;4.82;2.90;;;;;;;;;;5092149;28;20045;-72
2022/08/07 01:01:42;;;;;;;3.70;2.70;;;;;;;;;;5091974;28;20032;-72
2022/08/07 01:04:09;;;;;;;3.92;2.53;;;;;;;;;;5095585;28;20032;-72
2022/08/07 01:06:35;;;;;;;4.38;2.90;;;;;;;;;;5096121;28;20052;-73
2022/08/07 01:09:03;;;;;;;3.88;2.63;;;;;;;;;;5096261;28;20024;-72
2022/08/07 01:11:30;;;;;;;5.65;2.58;;;;;;;;;;5095754;28;20393;-72
2022/08/07 01:13:56;;;;;;;4.85;2.45;;;;;;;;;;5096145;28;20039;-72
2022/08/07 01:16:22;;;;;;;5.20;2.65;;;;;;;;;;5096012;28;20016;-73
2022/08/07 01:18:49;;;;;;;2.40;2.20;;;;;;;;;;5096018;28;20031;-73
2022/08/07 01:21:16;;;;;;;6.60;2.70;;;;;;;;;;5095983;28;20497;-72
2022/08/07 01:23:44;;;;;;;3.60;2.38;;;;;;;;;;5095759;28;20575;-72
2022/08/07 01:26:12;;;;;;;5.70;2.88;;;;;;;;;;5095507;28;20020;-72
2022/08/07 01:28:39;;;;;;;6.80;2.60;;;;;;;;;;5095813;28;20024;-72
2022/08/07 01:31:05;;;;;;;2.95;2.38;;;;;;;;;;5094542;28;20055;-72
2022/08/07 01:33:32;;;;;;;6.88;2.50;;;;;;;;;;5095720;28;20039;-72
2022/08/07 01:36:01;;;;;;;3.20;2.35;;;;;;;;;;5095428;28;20386;-72
2022/08/07 01:38:28;;;;;;;3.47;2.33;;;;;;;;;;5095876;28;20038;-72
2022/08/07 01:40:57;;;;;;;3.50;2.40;;;;;;;;;;5094811;28;20040;-72
2022/08/07 01:43:25;;;;;;;3.67;2.45;;;;;;;;;;5094521;28;20068;-72
2022/08/07 01:45:51;;;;;;;3.50;2.40;;;;;;;;;;5095550;28;20038;-73
2022/08/07 01:48:17;;;;;;;5.18;2.35;;;;;;;;;;5095341;28;20030;-72
2022/08/07 01:50:46;;;;;;;3.08;2.42;;;;;;;;;;5095707;28;20035;-72
2022/08/07 01:53:13;;;;;;;7.40;2.33;;;;;;;;;;5095300;28;20096;-72
2022/08/07 01:55:43;;;;;;;4.50;2.28;;;;;;;;;;5095197;28;20022;-72
2022/08/07 01:58:12;;;;;;;4.38;2.13;;;;;;;;;;5095221;28;20020;-72
2022/08/07 02:00:39;;;;;;;3.85;2.15;;;;;;;;;;5095453;28;20024;-72
2022/08/07 02:03:10;;;;;;;2.60;1.95;;;;;;;;;;5095168;28;20032;-72
2022/08/07 02:05:49;;;;;;;3.72;2.38;;;;;;;;;;5094885;28;20020;-72
2022/08/07 02:08:17;;;;;;;3.53;2.22;;;;;;;;;;5094614;28;20490;-72
2022/08/07 02:10:46;;;;;;;5.30;2.05;;;;;;;;;;5093948;28;20397;-72
2022/08/07 02:13:13;;;;;;;7.35;1.92;;;;;;;;;;5094843;28;20032;-72
2022/08/07 02:15:41;;;;;;;2.90;2.60;;;;;;;;;;5092744;28;20034;-73
2022/08/07 02:18:10;;;;;;;4.43;2.20;;;;;;;;;;5094870;28;20035;-72
2022/08/07 02:20:37;;;;;;;8.77;2.67;;;;;;;;;;5095194;28;20024;-72
2022/08/07 02:23:05;;;;;;;2.85;2.00;;;;;;;;;;5093465;28;20065;-72
2022/08/07 02:25:34;;;;;;;3.13;2.25;;;;;;;;;;5094937;28;20024;-72
2022/08/07 02:28:01;;;;;;;3.42;2.05;;;;;;;;;;5094876;28;20042;-72
2022/08/07 02:30:28;;;;;;;3.20;2.05;;;;;;;;;;5094422;28;20363;-72
2022/08/07 02:32:56;;;;;;;3.33;2.15;;;;;;;;;;5094415;28;20054;-72
2022/08/07 02:35:22;;;;;;;3.35;2.10;;;;;;;;;;5094343;28;20021;-72
2022/08/07 02:37:49;;;;;;;2.72;2.20;;;;;;;;;;5094363;28;20032;-72
2022/08/07 02:40:15;;;;;;;5.15;2.85;;;;;;;;;;5094241;28;20051;-72
2022/08/07 02:42:42;;;;;;;2.53;2.10;;;;;;;;;;5094405;28;20031;-72
2022/08/07 02:45:11;;;;;;;2.70;2.20;;;;;;;;;;5094203;28;20062;-72
2022/08/07 02:47:37;;;;;;;6.07;2.20;;;;;;;;;;5094463;28;20034;-72
2022/08/07 02:50:04;;;;;;;3.55;2.40;;;;;;;;;;5094221;28;20395;-73
2022/08/07 02:52:37;;;;;;;2.45;2.25;;;;;;;;;;5094161;28;20044;-72
2022/08/07 02:55:12;;;;;;;5.15;2.20;;;;;;;;;;5093965;28;20502;-73
2022/08/07 02:57:39;;;;;;;3.47;2.10;;;;;;;;;;5094264;28;20064;-72
2022/08/07 03:00:06;;;;;;;3.05;2.17;;;;;;;;;;5094160;28;20022;-72
2022/08/07 03:02:35;;;;;;;3.13;2.00;;;;;;;;;;5094080;28;20100;-72
2022/08/07 03:05:01;;;;;;;3.60;2.28;;;;;;;;;;5092790;28;20020;-72
2022/08/07 03:07:29;;;;;;;3.78;2.40;;;;;;;;;;5093885;28;20032;-72
2022/08/07 03:09:55;;;;;;;4.22;2.38;;;;;;;;;;5093805;28;20490;-72
2022/08/07 03:12:22;;;;;;;3.08;2.35;;;;;;;;;;5092647;28;20032;-72
2022/08/07 03:14:49;;;;;;;4.00;2.38;;;;;;;;;;5093861;28;20028;-72
2022/08/07 03:17:16;;;;;;;5.78;2.40;;;;;;;;;;5093732;28;20024;-72
2022/08/07 03:19:42;;;;;;;6.88;2.35;;;;;;;;;;5093636;28;20024;-73
2022/08/07 03:22:09;;;;;;;4.20;2.22;;;;;;;;;;5093381;28;20031;-72
2022/08/07 03:24:35;;;;;;;2.92;2.10;;;;;;;;;;5093856;28;20028;-72
2022/08/07 03:27:03;;;;;;;6.05;2.05;;;;;;;;;;5093676;28;20485;-72
2022/08/07 03:29:33;;;;;;;3.38;2.00;;;;;;;;;;5093382;28;20035;-72
2022/08/07 03:32:01;;;;;;;2.15;1.90;;;;;;;;;;5093483;28;20035;-72
2022/08/07 03:34:27;;;;;;;3.00;2.08;;;;;;;;;;5093118;28;20046;-73
2022/08/07 03:36:54;;;;;;;4.28;2.33;;;;;;;;;;5091491;28;20385;-72
2022/08/07 03:39:22;;;;;;;3.38;2.15;;;;;;;;;;5093268;28;20043;-72
2022/08/07 03:41:48;;;;;;;6.32;2.10;;;;;;;;;;5093309;28;20032;-72
2022/08/07 03:44:15;;;;;;;2.97;2.10;;;;;;;;;;5093183;28;20496;-72
2022/08/07 03:46:41;;;;;;;5.68;2.20;;;;;;;;;;5093343;28;20028;-72
2022/08/07 03:49:08;;;;;;;2.60;2.20;;;;;;;;;;5093535;28;20030;-73
2022/08/07 03:51:35;;;;;;;2.65;2.20;;;;;;;;;;5092580;28;20024;-72
2022/08/07 03:54:01;;;;;;;4.90;2.00;;;;;;;;;;5093060;28;20028;-72
2022/08/07 03:56:30;;;;;;;3.22;2.03;;;;;;;;;;5093099;28;20026;-72
2022/08/07 03:58:56;;;;;;;3.15;2.30;;;;;;;;;;5093005;28;20088;-72
2022/08/07 04:01:24;;;;;;;3.58;2.17;;;;;;;;;;5092110;28;20026;-72
2022/08/07 04:03:50;;;;;;;3.03;1.90;;;;;;;;;;5092778;28;20032;-72
2022/08/07 04:06:16;;;;;;;4.80;2.10;;;;;;;;;;5092546;28;20032;-72
2022/08/07 04:08:44;;;;;;;3.72;2.22;;;;;;;;;;5092809;28;20020;-72
2022/08/07 04:11:11;;;;;;;5.03;2.38;;;;;;;;;;5092787;28;20121;-72
2022/08/07 04:13:37;;;;;;;3.83;2.20;;;;;;;;;;5092415;28;20046;-72
2022/08/07 04:16:03;;;;;;;4.35;2.38;;;;;;;;;;5092839;28;20038;-72
2022/08/07 04:18:30;;;;;;;5.13;2.30;;;;;;;;;;5092253;28;20031;-71
2022/08/07 04:20:56;;;;;;;3.90;2.33;;;;;;;;;;5092920;28;20024;-72
2022/08/07 04:23:23;;;;;;;2.88;2.17;;;;;;;;;;5092968;28;20028;-72
2022/08/07 04:25:50;;;;;;;3.50;2.35;;;;;;;;;;5092431;28;20092;-72
2022/08/07 04:28:16;;;;;;;5.38;2.35;;;;;;;;;;5092711;28;20032;-72
2022/08/07 04:30:46;;;;;;;2.58;2.38;;;;;;;;;;5092644;28;20385;-72
2022/08/07 04:33:13;;;;;;;5.43;2.37;;;;;;;;;;5092256;28;20397;-72
2022/08/07 04:35:40;;;;;;;3.53;2.42;;;;;;;;;;5092186;28;20820;-72
2022/08/07 04:38:07;;;;;;;4.75;2.10;;;;;;;;;;5091887;28;20493;-72
2022/08/07 04:40:41;;;;;;;2.78;2.03;;;;;;;;;;5092427;28;20044;-72
2022/08/07 04:43:07;;;;;;;3.35;2.30;;;;;;;;;;5091173;28;20502;-72
2022/08/07 04:45:37;;;;;;;3.22;2.17;;;;;;;;;;5092572;28;20040;-73
2022/08/07 04:48:21;;;;;;;7.13;2.03;;;;;;;;;;5092038;28;20042;-72
2022/08/07 04:50:53;;;;;;;3.85;2.58;;;;;;;;;;5092373;28;20034;-72
2022/08/07 04:53:23;;;;;;;2.88;2.35;;;;;;;;;;5092094;28;20024;-72
2022/08/07 04:55:53;;;;;;;2.70;1.92;;;;;;;;;;5092280;28;20498;-72
2022/08/07 04:58:22;;;;;;;5.25;2.13;;;;;;;;;;5092257;28;20032;-72
2022/08/07 05:00:58;;;;;;;7.15;2.30;;;;;;;;;;5092112;28;20026;-72
2022/08/07 05:03:30;;;;;;;5.03;2.55;;;;;;;;;;5091901;28;20032;-72
2022/08/07 05:06:21;;;;;;;5.32;2.20;;;;;;;;;;5092103;28;20024;-72
2022/08/07 05:08:50;;;;;;;7.45;2.05;;;;;;;;;;5092138;28;20401;-72
2022/08/07 05:11:23;;;;;;;8.60;2.30;;;;;;;;;;5091995;28;20024;-72
2022/08/07 05:13:52;;;;;;;11.25;2.40;;;;;;;;;;5091967;28;20447;-72
2022/08/07 05:16:20;;;;;;;4.57;2.20;;;;;;;;;;5092018;28;20023;-72
2022/08/07 05:18:57;;;;;;;6.68;2.13;;;;;;;;;;5091900;28;20024;-72
2022/08/07 05:21:26;;;;;;;5.55;2.00;;;;;;;;;;5092020;28;20024;-72
2022/08/07 05:24:04;;;;;;;3.45;2.40;;;;;;;;;;5092252;28;20038;-72
2022/08/07 05:26:32;;;;;;;2.60;1.88;;;;;;;;;;5091968;28;20028;-72
2022/08/07 05:28:59;;;;;;;2.75;2.35;;;;;;;;;;5091752;28;20393;-72
2022/08/07 05:31:32;;;;;;;4.05;2.45;;;;;;;;;;5091511;28;20022;-72
2022/08/07 05:33:59;;;;;;;4.38;2.13;;;;;;;;;;5091799;28;20028;-72
2022/08/07 05:36:27;;;;;;;5.53;2.17;;;;;;;;;;5091739;28;20482;-72
2022/08/07 05:38:54;;;;;;;5.53;2.55;;;;;;;;;;5091382;28;20024;-72
2022/08/07 05:41:21;;;;;;;2.22;2.05;;;;;;;;;;5090897;28;20025;-71
2022/08/07 05:43:48;;;;;;;7.35;2.40;;;;;;;;;;5091881;28;20028;-72
2022/08/07 05:46:16;;;;;;;4.90;2.30;;;;;;;;;;5091549;28;20024;-72
2022/08/07 05:48:43;;;;;;;5.47;2.70;;;;;;;;;;5091857;28;20089;-72
2022/08/07 05:51:10;;;;;;;3.58;2.30;;;;;;;;;;5094436;28;20020;-72
2022/08/07 05:53:37;;;;;;;3.22;2.28;;;;;;;;;;5095321;28;20047;-72
2022/08/07 05:56:05;;;;;;;6.30;2.60;;;;;;;;;;5095339;28;20462;-72
2022/08/07 05:58:32;;;;;;;5.03;2.30;;;;;;;;;;5095432;28;20032;-72
2022/08/07 06:00:59;;;;;;;2.80;2.20;;;;;;;;;;5095184;28;20020;-72
2022/08/07 06:03:26;;;;;;;3.30;2.25;;;;;;;;;;5095115;28;20020;-72
2022/08/07 06:05:53;;;;;;;2.97;2.20;;;;;;;;;;5095108;28;20523;-73
2022/08/07 06:08:20;;;;;;;3.42;2.20;;;;;;;;;;5095062;28;20546;-72
2022/08/07 06:10:47;;;;;;;10.25;2.60;;;;;;;;;;5095182;28;20050;-72
2022/08/07 06:13:13;;;;;;;3.88;2.60;;;;;;;;;;5094872;28;20036;-72
2022/08/07 06:15:40;;;;;;;5.40;2.42;;;;;;;;;;5094462;28;20024;-72
2022/08/07 06:18:07;;;;;;;3.90;2.13;;;;;;;;;;5094834;28;20028;-72
2022/08/07 06:20:37;;;;;;;5.93;2.58;;;;;;;;;;5094910;28;20499;-72
2022/08/07 06:23:07;;;;;;;2.97;2.33;;;;;;;;;;5094889;28;20028;-72
2022/08/07 06:25:39;;;;;;;4.68;2.42;;;;;;;;;;5094720;28;20471;-72
2022/08/07 06:28:06;;;;;;;4.35;2.30;;;;;;;;;;5094639;28;20393;-72
2022/08/07 06:30:33;;;;;;;6.68;2.53;;;;;;;;;;5094199;28;20020;-72
2022/08/07 06:33:00;;;;;;;7.10;2.63;;;;;;;;;;5094541;28;20486;-72
2022/08/07 06:35:26;;;;;;;2.65;2.30;;;;;;;;;;5094349;28;20439;-72
2022/08/07 06:37:52;;;;;;;6.43;2.50;;;;;;;;;;5094314;28;20098;-72
2022/08/07 06:40:19;;;;;;;3.10;2.45;;;;;;;;;;5094353;28;20049;-72
2022/08/07 06:42:47;;;;;;;6.72;2.13;;;;;;;;;;5094439;28;20036;-72
2022/08/07 06:45:15;;;;;;;3.38;2.47;;;;;;;;;;5093995;28;20489;-72
2022/08/07 06:47:42;;;;;;;4.07;2.40;;;;;;;;;;5094565;28;20020;-72
2022/08/07 06:50:08;;;;;;;2.70;2.05;;;;;;;;;;5094354;28;20022;-72
2022/08/07 06:52:36;;;;;;;4.13;2.22;;;;;;;;;;5094358;28;20339;-73
2022/08/07 06:55:09;;;;;;;3.35;2.30;;;;;;;;;;5094233;28;20031;-72
2022/08/07 06:57:36;;;;;;;6.25;2.40;;;;;;;;;;5092775;28;20031;-72
2022/08/07 07:00:03;;;;;;;2.58;2.10;;;;;;;;;;5093810;28;20035;-72
2022/08/07 07:02:30;;;;;;;3.25;2.13;;;;;;;;;;5093613;28;20064;-72
2022/08/07 07:04:56;;;;;;;3.58;2.30;;;;;;;;;;5093783;28;20034;-73
2022/08/07 07:07:23;;;;;;;4.30;2.03;;;;;;;;;;5093964;28;20027;-72
2022/08/07 07:09:50;;;;;;;3.25;2.05;;;;;;;;;;5093773;28;20032;-72
2022/08/07 07:12:23;;;;;;;2.90;2.08;;;;;;;;;;5093953;28;20036;-72
2022/08/07 07:14:57;;;;;;;2.80;2.03;;;;;;;;;;5092543;28;20022;-72
2022/08/07 07:17:32;;;;;;;8.68;2.00;;;;;;;;;;5093870;28;20031;-72
2022/08/07 07:20:00;;;;;;;2.58;1.63;;;;;;;;;;5093691;28;20020;-72
2022/08/07 07:22:28;;;;;;;3.83;2.33;;;;;;;;;;5093639;28;20024;-72
2022/08/07 07:24:54;;;;;;;2.60;1.85;;;;;;;;;;5093668;28;20477;-72
2022/08/07 07:27:23;;;;;;;3.42;2.10;;;;;;;;;;5093492;28;20020;-72
2022/08/07 07:29:52;;;;;;;3.75;2.10;;;;;;;;;;5092287;28;20474;-73
2022/08/07 07:32:20;;;;;;;2.67;2.15;;;;;;;;;;5093265;28;20046;-72
2022/08/07 07:34:48;;;;;;;4.43;2.05;;;;;;;;;;5093240;28;20028;-73
2022/08/07 07:37:16;;;;;;;3.47;1.95;;;;;;;;;;5093225;28;20028;-72
2022/08/07 07:39:43;;;;;;;3.55;1.80;;;;;;;;;;5092984;28;20058;-73
2022/08/07 07:42:11;;;;;;;2.60;1.77;;;;;;;;;;5093188;28;20077;-73
2022/08/07 07:44:39;;;;;;;4.72;2.10;;;;;;;;;;5093147;28;20481;-73
2022/08/07 07:47:06;;;;;;;2.70;1.90;;;;;;;;;;5093501;28;20028;-72
2022/08/07 07:49:33;;;;;;;7.13;2.13;;;;;;;;;;5093014;28;20046;-73
2022/08/07 07:52:00;;;;;;;3.88;2.00;;;;;;;;;;5093120;28;20032;-72
2022/08/07 07:54:27;;;;;;;3.15;2.00;;;;;;;;;;5093168;28;20030;-73
2022/08/07 07:56:54;;;;;;;3.25;2.10;;;;;;;;;;5092684;28;20383;-73
2022/08/07 07:59:21;;;;;;;4.20;2.20;;;;;;;;;;5093288;28;20035;-72
2022/08/07 08:01:49;;;;;;;6.53;1.95;;;;;;;;;;5092926;28;20024;-73
2022/08/07 08:04:16;;;;;;;3.75;2.13;;;;;;;;;;5093009;28;20478;-72
2022/08/07 08:06:44;;;;;;;2.95;2.08;;;;;;;;;;5092991;28;20034;-72
2022/08/07 08:09:11;;;;;;;3.20;1.88;;;;;;;;;;5092800;28;20483;-73
2022/08/07 08:11:37;;;;;;;4.22;1.90;;;;;;;;;;5092557;28;20024;-72
2022/08/07 08:14:04;;;;;;;2.90;2.00;;;;;;;;;;5092107;28;20054;-73
2022/08/07 08:16:35;;;;;;;5.40;2.42;;;;;;;;;;5093108;28;20020;-73
2022/08/07 08:19:02;;;;;;;5.38;1.70;;;;;;;;;;5092678;28;20053;-73
2022/08/07 08:27:04;;;;;;;3.00;1.85;;;;;;;;;;5092054;28;20020;-73
2022/08/07 08:29:56;;;;;;;3.22;2.20;;;;;;;;;;5092275;28;20028;-73
2022/08/07 08:32:26;;;;;;;2.78;1.98;;;;;;;;;;5087307;28;20046;-73
2022/08/07 08:34:53;;;;;;;4.93;2.22;;;;;;;;;;5092428;28;20053;-73
2022/08/07 08:37:20;;;;;;;3.60;2.20;;;;;;;;;;5092344;28;20054;-73
2022/08/07 08:39:48;;;;;;;2.13;1.92;;;;;;;;;;5091838;28;20052;-73
2022/08/07 08:42:37;;;;;;;3.03;1.90;;;;;;;;;;5092420;28;20027;-73
2022/08/07 08:45:05;;;;;;;;;;;;;;;;;;5092725;28;20051;-72
2022/08/07 08:47:50;;;;;;;2.65;1.90;;;;;;;;;;5092271;28;20284;-73
2022/08/07 08:50:16;;;;;;;3.03;1.73;;;;;;;;;;5092227;28;20047;-73
2022/08/07 08:53:02;;;;;;;3.53;1.98;;;;;;;;;;5092364;28;20040;-73
2022/08/07 08:56:00;;;;;;;2.42;1.88;;;;;;;;;;5092127;28;20024;-72
2022/08/07 08:58:46;;;;;;;2.35;1.67;;;;;;;;;;5029809;28;20038;-72
2022/08/07 09:01:31;;;;;;;3.13;2.15;;;;;;;;;;5029940;28;20033;-73
2022/08/07 09:04:13;;;;;;;3.40;1.85;;;;;;;;;;5030313;28;20039;-73
2022/08/07 09:06:39;;;;;;;2.70;1.88;;;;;;;;;;5029890;28;20610;-72
2022/08/07 09:09:09;;;;;;;4.03;1.90;;;;;;;;;;5029378;28;20044;-72
2022/08/07 09:11:38;;;;;;;2.28;1.55;;;;;;;;;;5030093;28;20040;-73
2022/08/07 09:14:11;;;;;;;3.80;2.08;;;;;;;;;;5029690;28;20113;-73
2022/08/07 09:16:47;;;;;;;3.55;1.92;;;;;;;;;;5029774;28;20028;-73
2022/08/07 09:19:16;;;;;;;6.43;1.90;;;;;;;;;;5029807;28;20028;-73
2022/08/07 09:21:54;;;;;;;4.05;1.70;;;;;;;;;;5029947;28;20042;-73
2022/08/07 09:24:23;;;;;;;3.30;1.90;;;;;;;;;;5031108;28;20045;-73
2022/08/07 09:26:59;;;;;;;2.85;2.10;;;;;;;;;;5033594;28;20528;-73
2022/08/07 09:29:37;;;;;;;3.17;2.20;;;;;;;;;;5033744;28;20048;-73
2022/08/07 09:32:20;;;;;;;2.42;2.15;;;;;;;;;;5033577;28;20070;-73
2022/08/07 09:35:06;;;;;;;2.00;1.80;;;;;;;;;;5083212;28;20058;-73
2022/08/07 09:37:39;;;;;;;3.53;2.00;;;;;;;;;;5095382;28;20034;-73
2022/08/07 09:40:15;;;;;;;2.63;1.90;;;;;;;;;;5095516;28;20044;-73
2022/08/07 09:42:59;;;;;;;4.65;1.90;;;;;;;;;;5095679;28;20020;-73
2022/08/07 09:45:35;;;;;;;6.50;2.30;;;;;;;;;;5095621;28;20024;-73
2022/08/07 09:48:09;;;;;;;4.82;2.20;;;;;;;;;;5094234;28;20024;-73
2022/08/07 09:50:59;;;;;;;5.40;2.15;;;;;;;;;;5095482;28;20020;-73
2022/08/07 09:53:27;;;;;;;4.72;2.10;;;;;;;;;;5095040;28;20028;-73
2022/08/07 09:55:59;;;;;;;3.17;1.90;;;;;;;;;;5095389;28;20065;-73
2022/08/07 09:58:44;;;;;;;3.03;2.00;;;;;;;;;;5095134;28;20030;-73
2022/08/07 10:01:30;;;;;;;5.28;1.90;;;;;;;;;;5095327;28;20493;-73
2022/08/07 10:03:56;;;;;;;4.43;2.10;;;;;;;;;;5095425;28;20028;-73
2022/08/07 10:06:41;;;;;;;3.72;2.17;;;;;;;;;;5094911;28;20024;-73
2022/08/07 10:09:10;;;;;;;4.18;2.00;;;;;;;;;;5093868;28;20036;-73
2022/08/07 10:11:48;;;;;;;2.90;2.00;;;;;;;;;;5094906;28;20502;-73
2022/08/07 10:14:24;;;;;;;4.25;1.95;;;;;;;;;;5095166;28;20038;-73
2022/08/07 10:17:16;;;;;;;3.05;1.90;;;;;;;;;;5094848;28;20057;-73
2022/08/07 10:19:58;;;;;;;4.68;2.03;;;;;;;;;;5094876;28;20024;-74
2022/08/07 10:22:51;;;;;;;4.57;2.03;;;;;;;;;;5094544;28;20027;-73
2022/08/07 10:25:20;;;;;;;2.45;2.00;;;;;;;;;;5032385;28;20032;-74
2022/08/07 10:27:55;;;;;;;6.03;1.90;;;;;;;;;;5032558;28;20057;-73
2022/08/07 10:30:40;;;;;;;4.00;2.08;;;;;;;;;;5032304;28;20070;-73
2022/08/07 10:33:14;;;;;;;5.10;2.03;;;;;;;;;;5032340;28;20053;-73
2022/08/07 10:36:09;;;;;;;2.08;1.88;;;;;;;;;;5031358;28;20041;-73
2022/08/07 10:38:38;;;;;;;3.10;1.70;;;;;;;;;;4953941;29;20035;-73
2022/08/07 10:41:16;;;;;;;5.75;1.88;;;;;;;;;;4953840;29;20509;-73
2022/08/07 10:44:12;;;;;;;4.75;2.35;;;;;;;;;;4953871;29;20041;-73
2022/08/07 10:46:41;;;;;;;2.42;1.90;;;;;;;;;;4896937;29;20033;-73
2022/08/07 10:49:22;;;;;;;6.43;1.80;;;;;;;;;;4896744;29;20050;-73
2022/08/07 10:51:52;;;;;;;4.70;2.13;;;;;;;;;;4896400;29;20048;-73
2022/08/07 10:54:24;;;;;;;2.77;2.00;;;;;;;;;;4896995;29;20029;-73
2022/08/07 10:57:05;;;;;;;3.88;2.22;;;;;;;;;;4896613;29;20111;-73
2022/08/07 10:59:50;;;;;;;3.20;2.08;;;;;;;;;;4896761;29;20091;-73
2022/08/07 11:02:32;;;;;;;12.90;2.00;;;;;;;;;;4929320;29;20040;-73
2022/08/07 11:05:07;;;;;;;2.65;2.03;;;;;;;;;;4953413;29;20045;-73
2022/08/07 11:07:52;;;;;;;5.28;2.05;;;;;;;;;;4953359;29;20027;-73
2022/08/07 11:10:37;;;;;;;3.25;1.90;;;;;;;;;;4953472;29;20039;-73
2022/08/07 11:13:10;;;;;;;2.17;1.90;;;;;;;;;;4953631;29;20042;-73
2022/08/07 11:15:39;;;;;;;6.78;2.40;;;;;;;;;;4967872;28;20043;-73
2022/08/07 11:18:09;;;;;;;6.07;2.10;;;;;;;;;;4972908;28;20035;-73
2022/08/07 11:20:45;;;;;;;3.30;2.20;;;;;;;;;;4972514;28;20042;-73
2022/08/07 11:23:23;;;;;;;5.40;2.20;;;;;;;;;;5028978;28;20031;-73
2022/08/07 11:25:58;;;;;;;6.65;2.17;;;;;;;;;;5073274;28;20035;-73
2022/08/07 11:28:33;;;;;;;4.22;2.30;;;;;;;;;;5073609;28;20017;-73
2022/08/07 11:31:06;;;;;;;3.08;2.22;;;;;;;;;;5073231;28;20021;-73
2022/08/07 11:33:50;;;;;;;6.07;1.90;;;;;;;;;;5072963;28;20032;-73
2022/08/07 11:36:17;;;;;;;3.45;2.10;;;;;;;;;;5075941;28;20432;-73
2022/08/07 11:38:48;;;;;;;3.70;2.60;;;;;;;;;;5093736;28;20022;-74
2022/08/07 11:41:18;;;;;;;4.05;1.75;;;;;;;;;;5093432;28;20048;-73
2022/08/07 11:43:57;;;;;;;2.38;1.90;;;;;;;;;;5093211;28;20375;-73
2022/08/07 11:46:47;;;;;;;4.47;2.20;;;;;;;;;;5093111;28;20409;-73
2022/08/07 11:49:17;;;;;;;4.97;2.40;;;;;;;;;;5092360;28;20026;-73
2022/08/07 11:52:09;;;;;;;5.97;2.30;;;;;;;;;;5093105;28;20413;-73
2022/08/07 11:54:52;;;;;;;3.97;2.35;;;;;;;;;;5030802;28;20631;-73
2022/08/07 11:57:28;;;;;;;3.88;1.90;;;;;;;;;;5030750;28;20026;-73
2022/08/07 12:00:04;;;;;;;6.07;2.35;;;;;;;;;;5030879;28;20056;-73
2022/08/07 12:02:49;;;;;;;2.60;1.83;;;;;;;;;;5030335;28;20132;-72
2022/08/07 12:05:25;;;;;;;3.20;1.70;;;;;;;;;;5030631;28;20052;-73
2022/08/07 12:07:52;;;;;;;4.85;1.90;;;;;;;;;;5030790;28;20032;-73
2022/08/07 12:10:25;;;;;;;2.70;1.77;;;;;;;;;;5030511;28;20036;-73
2022/08/07 12:13:03;;;;;;;2.90;1.77;;;;;;;;;;5030177;28;20052;-74
2022/08/07 12:15:31;;;;;;;5.43;1.55;;;;;;;;;;5030496;28;20043;-73
2022/08/07 12:18:26;;;;;;;3.85;1.73;;;;;;;;;;5029954;28;20037;-74
2022/08/07 12:21:14;;;;;;;4.35;1.60;;;;;;;;;;5014105;28;20041;-73
2022/08/07 12:23:40;;;;;;;2.50;1.77;;;;;;;;;;5030260;28;20029;-74
2022/08/07 12:26:27;;;;;;;2.40;2.20;;;;;;;;;;5030164;28;20388;-74
2022/08/07 12:28:53;;;;;;;1.90;1.70;;;;;;;;;;5030289;28;20026;-73
2022/08/07 12:31:43;;;;;;;2.47;1.90;;;;;;;;;;5060308;28;20513;-74
2022/08/07 12:34:09;;;;;;;;;;;;;;;;;;5092677;28;20409;-73
2022/08/07 12:36:36;;;;;;;4.20;1.80;;;;;;;;;;5092673;28;19904;-73
2022/08/07 12:39:04;;;;;;;3.00;1.77;;;;;;;;;;5092427;28;20024;-73
2022/08/07 12:41:33;;;;;;;2.55;1.98;;;;;;;;;;5092478;28;20030;-73
2022/08/07 12:44:00;;;;;;;2.22;1.50;;;;;;;;;;5092767;28;20026;-73
2022/08/07 12:46:42;;;;;;;4.85;1.60;;;;;;;;;;5092117;28;20042;-73
2022/08/07 12:49:38;;;;;;;2.42;1.77;;;;;;;;;;5092179;28;20386;-73
2022/08/07 12:52:12;;;;;;;2.40;1.60;;;;;;;;;;5079617;28;20040;-74
2022/08/07 12:54:43;;;;;;;2.50;1.73;;;;;;;;;;5092592;28;20044;-74
2022/08/07 12:57:10;;;;;;;5.85;1.80;;;;;;;;;;5092243;28;20035;-74
2022/08/07 12:59:37;;;;;;;2.05;1.40;;;;;;;;;;5094744;28;20047;-74
2022/08/07 13:02:17;;;;;;;3.03;1.50;;;;;;;;;;5096460;28;20020;-73
2022/08/07 13:04:43;;;;;;;2.53;1.50;;;;;;;;;;5096691;28;20020;-74
2022/08/07 13:07:28;;;;;;;2.47;1.42;;;;;;;;;;5096429;28;20020;-73
2022/08/07 13:09:57;;;;;;;1.80;1.52;;;;;;;;;;5096228;28;20020;-73
2022/08/07 13:12:23;;;;;;;2.53;1.67;;;;;;;;;;5096068;28;20046;-74
2022/08/07 13:15:08;;;;;;;7.93;1.40;;;;;;;;;;5096006;28;20022;-73
2022/08/07 13:17:53;;;;;;;1.30;1.20;;;;;;;;;;5096022;28;20030;-73
2022/08/07 13:20:23;;;;;;;2.50;1.48;;;;;;;;;;5096136;28;20486;-74
2022/08/07 13:22:52;;;;;;;1.92;1.15;;;;;;;;;;5095950;28;20486;-74
2022/08/07 13:25:25;;;;;;;2.55;1.48;;;;;;;;;;5096095;28;20016;-74
2022/08/07 13:27:58;;;;;;;7.40;1.65;;;;;;;;;;5095843;28;20034;-74
2022/08/07 13:30:26;;;;;;;3.13;1.50;;;;;;;;;;5095623;28;20501;-73
2022/08/07 13:33:04;;;;;;;2.55;1.67;;;;;;;;;;5095942;28;20036;-73
2022/08/07 13:35:39;;;;;;;1.58;1.45;;;;;;;;;;5095878;28;20016;-74
2022/08/07 13:38:30;;;;;;;1.95;1.30;;;;;;;;;;5095621;28;20024;-74
2022/08/07 13:41:19;;;;;;;1.45;1.20;;;;;;;;;;5095454;28;20050;-74
2022/08/07 13:43:49;;;;;;;1.45;1.10;;;;;;;;;;5096027;28;20032;-74
2022/08/07 13:46:16;;;;;;;1.42;1.33;;;;;;;;;;5094015;28;20058;-74
2022/08/07 13:48:50;;;;;;;3.13;1.30;;;;;;;;;;5095423;28;20022;-74
2022/08/07 13:51:18;;;;;;;2.10;1.55;;;;;;;;;;5095554;28;20038;-74
2022/08/07 13:53:49;;;;;;;2.33;1.50;;;;;;;;;;5095393;28;20040;-74
2022/08/07 13:56:20;;;;;;;1.92;1.42;;;;;;;;;;5095520;28;20073;-74
2022/08/07 13:59:00;;;;;;;4.95;1.33;;;;;;;;;;5094859;28;20024;-74
2022/08/07 14:01:27;;;;;;;2.97;1.55;;;;;;;;;;5095495;28;20016;-74
2022/08/07 14:03:54;;;;;;;2.90;1.50;;;;;;;;;;5095405;28;20440;-74
2022/08/07 14:06:21;;;;;;;1.98;1.10;;;;;;;;;;5095386;28;20020;-74
2022/08/07 14:08:52;;;;;;;1.70;1.20;;;;;;;;;;5095156;28;20512;-74
2022/08/07 14:11:20;;;;;;;2.25;1.30;;;;;;;;;;5094233;28;20032;-74
2022/08/07 14:13:55;;;;;;;1.73;1.13;;;;;;;;;;5094673;28;20032;-74
2022/08/07 14:16:29;;;;;;;1.42;1.23;;;;;;;;;;5095208;28;20027;-74
2022/08/07 14:18:56;;;;;;;1.35;1.25;;;;;;;;;;5095086;28;20016;-74
2022/08/07 14:21:28;;;;;;;1.17;1.08;;;;;;;;;;5094947;28;20073;-74
2022/08/07 14:23:56;;;;;;;2.50;1.10;;;;;;;;;;5094890;28;20020;-74
2022/08/07 14:26:26;;;;;;;1.90;1.20;;;;;;;;;;5095084;28;20036;-74
2022/08/07 14:28:52;;;;;;;1.10;1.00;;;;;;;;;;5094639;28;20024;-74
2022/08/07 14:31:22;;;;;;;1.55;1.15;;;;;;;;;;5094688;28;20024;-74
2022/08/07 14:33:49;;;;;;;;;;;;;;;;;;5095022;28;20029;-74
2022/08/07 14:36:15;;;;;;;2.67;1.33;;;;;;;;;;5094877;28;21148;-74
2022/08/07 14:38:44;;;;;;;2.67;1.25;;;;;;;;;;5094639;28;20101;-74
2022/08/07 14:41:11;;;;;;;3.40;1.38;;;;;;;;;;5094361;28;20058;-74
2022/08/07 14:43:39;;;;;;;1.90;1.23;;;;;;;;;;5094204;28;20490;-74
2022/08/07 14:46:06;;;;;;;1.60;1.05;;;;;;;;;;5094661;28;20028;-73
2022/08/07 14:48:34;;;;;;;2.33;1.30;;;;;;;;;;5094419;28;20034;-74
2022/08/07 14:51:03;;;;;;;1.58;1.33;;;;;;;;;;5094361;28;20026;-74
2022/08/07 14:53:36;;;;;;;2.27;1.10;;;;;;;;;;5094176;28;20036;-74
2022/08/07 14:56:04;;;;;;;1.38;1.00;;;;;;;;;;5094216;28;20032;-74
2022/08/07 14:58:31;;;;;;;1.30;1.10;;;;;;;;;;5093976;28;20020;-74
2022/08/07 15:00:59;;;;;;;3.10;1.20;;;;;;;;;;5092725;28;20028;-74
2022/08/07 15:03:26;;;;;;;1.23;1.10;;;;;;;;;;5093039;28;20041;-74
2022/08/07 15:05:53;;;;;;;1.80;1.30;;;;;;;;;;5094148;28;20432;-74
2022/08/07 15:08:24;;;;;;;1.25;0.95;;;;;;;;;;5094078;28;20020;-74
2022/08/07 15:10:56;;;;;;;2.50;1.38;;;;;;;;;;5093806;28;20482;-74